Terminal Aerodrome Forecast
Issued by NWS Blacksburg, VA

Current Version | Previous Version | Text Only | Print | Product List | Glossary Off
Versions: 1 2 3 4 5 6 7 8 9 10 11 12 13 14 15 16 17 18 19 20

000
FTUS41 KRNK 221135
TAFBLF
TAF
KBLF 221135Z 2212/2312 VRB03KT 5SM -RA BR OVC040
     FM221800 18004KT P6SM OVC020
      TEMPO 2218/2220 2SM -RA OVC007
     FM230100 17004KT 4SM BR OVC015=

USA.gov is the U.S. government's official web portal to all federal, state and local government web resources and services.